Time;durP1;ratioP1;P1;durP2;ratioP2;P2;SDS_P1;SDS_P2;PMS_P1;PMS_P2;Temp;Humidity;BMP_temperature;BMP_pressure;BME280_temperature;BME280_humidity;BME280_pressure;Samples;Min_cycle;Max_cycle;Signal;HPM_P1;HPM_P2
2021/08/09 00:01:26;;;;;;;2.58;1.50;;;16.20;78.30;;;14.84;77.51;96326.34;4968546;28;20042;-63
2021/08/09 00:03:51;;;;;;;2.90;1.85;;;16.20;78.40;;;14.84;77.67;96319.19;4948818;28;20031;-63
2021/08/09 00:06:17;;;;;;;3.10;1.52;;;16.20;78.40;;;14.83;78.29;96309.63;4963350;28;20046;-63
2021/08/09 00:08:43;;;;;;;3.53;1.63;;;16.20;78.50;;;14.81;78.34;96313.50;4957871;28;20043;-63
2021/08/09 00:11:09;;;;;;;3.88;1.40;;;16.10;78.50;;;14.79;77.16;96307.63;4965968;28;20518;-63
2021/08/09 00:13:35;;;;;;;2.80;1.80;;;16.10;78.50;;;14.76;78.56;96318.63;4954537;28;20050;-63
2021/08/09 00:16:00;;;;;;;2.60;1.50;;;16.10;78.50;;;14.74;78.06;96316.19;4964991;28;20090;-63
2021/08/09 00:18:26;;;;;;;6.10;1.88;;;16.10;78.50;;;14.74;77.07;96320.69;4929415;28;20511;-63
2021/08/09 00:20:53;;;;;;;4.60;1.75;;;16.00;78.90;;;14.68;77.22;96311.72;4917828;29;20395;-62
2021/08/09 00:23:20;;;;;;;4.13;1.63;;;16.00;78.80;;;14.68;78.12;96311.72;4946111;28;20542;-63
2021/08/09 00:25:45;;;;;;;2.75;1.58;;;16.00;79.00;;;14.67;78.62;96313.56;4945369;28;20027;-62
2021/08/09 00:28:11;;;;;;;3.80;1.70;;;16.00;79.30;;;14.65;77.69;96318.25;4939366;28;20151;-62
2021/08/09 00:30:37;;;;;;;5.45;2.00;;;16.00;79.30;;;14.64;78.19;96321.91;4934997;28;20099;-63
2021/08/09 00:33:03;;;;;;;3.38;1.60;;;16.00;79.20;;;14.62;79.21;96313.38;4934925;28;20091;-62
2021/08/09 00:35:29;;;;;;;2.78;1.80;;;16.00;79.30;;;14.60;77.57;96315.41;4968830;28;20031;-63
2021/08/09 00:37:55;;;;;;;3.25;1.40;;;15.90;79.40;;;14.60;79.42;96314.59;4934799;29;20036;-63
2021/08/09 00:40:20;;;;;;;5.13;1.77;;;15.90;79.50;;;14.56;78.32;96313.41;4981594;28;20032;-63
2021/08/09 00:42:46;;;;;;;4.45;1.80;;;15.90;79.40;;;14.52;79.10;96318.31;4928742;29;20032;-62
2021/08/09 00:45:12;;;;;;;3.45;1.58;;;15.80;79.50;;;14.48;78.84;96317.06;4947517;28;20423;-62
2021/08/09 00:47:38;;;;;;;3.55;1.80;;;15.80;79.50;;;14.47;78.06;96309.34;4947505;28;20480;-63
2021/08/09 00:50:04;;;;;;;5.22;1.90;;;15.80;79.60;;;14.44;78.20;96307.91;4962393;28;20032;-63
2021/08/09 00:52:30;;;;;;;3.67;1.80;;;15.70;79.60;;;14.41;78.97;96303.00;4933407;29;20091;-62
2021/08/09 00:54:55;;;;;;;5.63;2.10;;;15.70;79.60;;;14.38;79.54;96306.09;4965417;28;20097;-62
2021/08/09 00:57:21;;;;;;;3.33;1.67;;;15.60;79.60;;;14.35;78.96;96303.84;4956857;28;20049;-63
2021/08/09 00:59:47;;;;;;;4.13;1.80;;;15.60;79.80;;;14.33;78.68;96293.47;4965502;28;20075;-62
2021/08/09 01:02:13;;;;;;;5.53;1.73;;;15.60;79.70;;;14.31;79.20;96305.28;4944579;28;20055;-62
2021/08/09 01:04:38;;;;;;;4.35;2.00;;;15.60;79.80;;;14.29;78.55;96302.03;4944217;28;20050;-63
2021/08/09 01:07:06;;;;;;;3.72;2.00;;;15.70;79.80;;;14.28;79.10;96300.41;4967756;28;20081;-62
2021/08/09 01:09:43;;;;;;;3.33;1.85;;;15.60;79.80;;;14.25;78.50;96303.44;4938373;28;20070;-62
2021/08/09 01:12:40;;;;;;;3.63;1.98;;;15.60;80.00;;;14.26;79.56;96303.28;4947891;28;20026;-62
2021/08/09 01:15:14;;;;;;;2.65;1.90;;;15.60;80.20;;;14.23;80.07;96298.38;4954917;28;20035;-62
2021/08/09 01:17:42;;;;;;;3.28;1.80;;;15.60;80.40;;;14.22;78.94;96298.56;4920658;28;20223;-62
2021/08/09 01:20:50;;;;;;;3.20;2.05;;;15.60;80.30;;;14.21;81.13;96291.66;4952275;28;20384;-62
2021/08/09 01:23:51;;;;;;;5.00;2.20;;;15.60;80.50;;;14.19;80.17;96301.63;4925183;28;20046;-62
2021/08/09 01:26:58;;;;;;;4.63;2.15;;;15.60;80.70;;;14.17;80.05;96293.09;4947741;28;20039;-62
2021/08/09 01:29:34;;;;;;;5.47;2.20;;;15.50;80.70;;;14.14;80.25;96296.16;4971192;28;20071;-62
2021/08/09 01:31:59;;;;;;;5.18;1.98;;;15.50;80.80;;;14.13;80.54;96302.47;4938612;28;20031;-63
2021/08/09 01:34:25;;;;;;;4.47;1.88;;;15.40;80.90;;;14.10;80.51;96299.22;4940167;28;20040;-62
2021/08/09 01:36:52;;;;;;;4.32;1.67;;;15.50;80.90;;;14.08;79.24;96290.69;4905618;29;20031;-62
2021/08/09 01:39:18;;;;;;;4.90;2.08;;;15.40;80.90;;;14.04;80.04;96301.88;4921459;29;20511;-63
2021/08/09 01:41:43;;;;;;;6.05;2.10;;;15.40;80.80;;;14.01;79.66;96296.97;4949201;28;20042;-62
2021/08/09 01:44:09;;;;;;;3.83;1.90;;;15.40;80.60;;;13.97;80.02;96295.78;4931150;28;20027;-62
2021/08/09 01:46:35;;;;;;;2.85;1.52;;;15.30;80.60;;;13.95;80.85;96306.56;4928687;29;20031;-62
2021/08/09 01:49:03;;;;;;;5.03;2.00;;;15.30;80.60;;;13.94;80.75;96301.47;4929737;28;20101;-62
2021/08/09 01:51:28;;;;;;;3.85;1.77;;;15.20;80.80;;;13.93;80.22;96307.78;4945244;28;20108;-62
2021/08/09 01:53:54;;;;;;;5.25;2.08;;;15.30;80.90;;;13.94;81.37;96298.81;4970804;28;20738;-63
2021/08/09 01:56:20;;;;;;;2.83;1.70;;;15.30;81.10;;;13.92;81.27;96301.69;4955631;28;20435;-63
2021/08/09 01:58:47;;;;;;;5.60;1.83;;;15.30;81.40;;;13.93;81.06;96297.19;4966114;28;20051;-63
2021/08/09 02:01:13;;;;;;;4.43;2.30;;;15.40;81.60;;;13.95;80.91;96292.53;4926250;28;20043;-62
2021/08/09 02:03:38;;;;;;;3.63;1.88;;;15.30;81.70;;;13.95;80.18;96290.69;4951064;28;20043;-63
2021/08/09 02:06:04;;;;;;;3.95;1.70;;;15.30;81.70;;;13.97;81.23;96293.13;4959752;28;20023;-63
2021/08/09 02:08:30;;;;;;;4.97;1.80;;;15.30;81.60;;;14.00;81.48;96296.16;4935585;28;20085;-63
2021/08/09 02:11:07;;;;;;;7.28;2.13;;;15.40;81.40;;;14.01;81.54;96296.97;4953769;28;20040;-63
2021/08/09 02:13:45;;;;;;;3.10;1.77;;;15.40;81.60;;;14.02;81.89;96296.78;4950750;28;20142;-63
2021/08/09 02:16:27;;;;;;;4.30;1.60;;;15.40;81.50;;;14.04;81.91;96300.06;4952088;28;20379;-63
2021/08/09 02:19:15;;;;;;;5.10;1.90;;;15.40;81.60;;;14.05;82.50;96296.38;4947871;28;20039;-63
2021/08/09 02:21:57;;;;;;;2.15;1.67;;;15.40;81.80;;;14.05;80.99;96290.28;4950946;28;20035;-63
2021/08/09 02:24:45;;;;;;;5.85;2.03;;;15.40;82.10;;;14.04;81.99;96289.47;4935715;28;20588;-64
2021/08/09 02:27:17;;;;;;;2.92;1.83;;;15.40;82.20;;;14.06;82.85;96281.34;4935689;28;20615;-64
2021/08/09 02:29:46;;;;;;;6.50;2.20;;;15.40;82.30;;;14.06;82.39;96282.16;4966877;28;20062;-63
2021/08/09 02:32:12;;;;;;;4.70;1.85;;;15.40;82.20;;;14.05;81.79;96275.22;4922407;29;20067;-63
2021/08/09 02:34:38;;;;;;;2.88;1.70;;;15.40;82.10;;;14.07;82.36;96281.13;4967778;28;20042;-63
2021/08/09 02:37:04;;;;;;;4.13;1.77;;;15.50;82.10;;;14.07;81.49;96275.84;4953284;28;20031;-63
2021/08/09 02:39:32;;;;;;;3.67;1.83;;;15.50;81.90;;;14.07;82.16;96278.47;4966052;28;20509;-63
2021/08/09 02:41:59;;;;;;;3.75;1.85;;;15.50;82.00;;;14.05;81.69;96280.53;4924244;28;20090;-63
2021/08/09 02:44:25;;;;;;;4.50;1.70;;;15.40;81.90;;;14.05;81.98;96277.88;4903784;29;20043;-62
2021/08/09 02:46:50;;;;;;;3.13;1.77;;;15.40;81.80;;;14.04;81.47;96278.91;4904055;29;20090;-64
2021/08/09 02:49:16;;;;;;;3.17;1.88;;;15.40;81.80;;;14.03;81.90;96281.72;4940993;28;20062;-63
2021/08/09 02:51:42;;;;;;;4.72;1.80;;;15.40;81.90;;;14.00;81.64;96290.88;4934829;28;20043;-63
2021/08/09 02:54:08;;;;;;;2.33;1.67;;;15.40;81.80;;;13.98;80.86;96284.97;4969319;28;20057;-63
2021/08/09 02:56:33;;;;;;;4.70;2.03;;;15.40;81.80;;;13.95;81.44;96285.41;4935177;28;20050;-63
2021/08/09 02:58:59;;;;;;;12.63;6.25;;;15.30;81.60;;;13.94;82.30;96285.59;4937001;28;20121;-62
2021/08/09 03:01:27;;;;;;;14.73;9.55;;;15.30;81.80;;;13.94;81.04;96294.34;4937463;28;20031;-63
2021/08/09 03:03:56;;;;;;;12.95;10.68;;;15.30;81.90;;;13.94;82.29;96293.53;4938847;28;20023;-63
2021/08/09 03:06:22;;;;;;;15.55;13.55;;;15.40;82.00;;;13.91;81.64;96305.34;4934768;28;20032;-63
2021/08/09 03:08:47;;;;;;;13.38;9.27;;;15.30;82.10;;;13.91;82.02;96299.25;4969914;28;20049;-63
2021/08/09 03:11:14;;;;;;;17.67;8.57;;;15.30;82.10;;;13.90;81.45;96298.44;4932601;28;20548;-63
2021/08/09 03:13:45;;;;;;;19.50;17.45;;;15.30;81.90;;;13.93;82.64;96305.94;4946307;28;20039;-63
2021/08/09 03:16:10;;;;;;;15.70;14.05;;;15.30;82.00;;;13.93;82.24;96305.13;4920015;29;20523;-63
2021/08/09 03:18:36;;;;;;;12.45;9.55;;;15.40;82.00;;;13.93;82.37;96297.19;4937860;28;20042;-63
2021/08/09 03:21:02;;;;;;;20.48;16.08;;;15.30;82.00;;;13.95;82.28;96308.38;4939956;28;20047;-63
2021/08/09 03:23:27;;;;;;;19.50;17.42;;;15.30;82.00;;;13.97;82.77;96303.69;4932735;28;20066;-63
2021/08/09 03:25:53;;;;;;;43.95;36.88;;;15.40;82.30;;;13.99;82.64;96302.47;4958778;28;20030;-63
2021/08/09 03:28:19;;;;;;;31.52;25.98;;;15.40;82.00;;;14.00;82.96;96304.09;4950563;28;20041;-63
2021/08/09 03:30:45;;;;;;;34.38;29.25;;;15.50;82.10;;;14.00;82.44;96312.03;4969094;28;20058;-63
2021/08/09 03:33:10;;;;;;;44.28;38.70;;;15.50;81.80;;;14.02;82.08;96315.28;4935959;29;20031;-63
2021/08/09 03:35:36;;;;;;;24.15;18.48;;;15.50;81.90;;;14.04;82.46;96315.09;4948938;28;20147;-63
2021/08/09 03:38:02;;;;;;;8.75;6.88;;;15.50;81.80;;;14.06;82.78;96319.19;4947865;29;20496;-62
2021/08/09 03:40:27;;;;;;;5.45;2.78;;;15.60;81.90;;;14.08;82.53;96321.63;4955163;28;20070;-63
2021/08/09 03:42:54;;;;;;;4.68;2.10;;;15.60;81.90;;;14.09;81.62;96324.06;4981639;28;20050;-63
2021/08/09 03:45:20;;;;;;;3.45;2.00;;;15.60;82.00;;;14.11;81.78;96318.56;4956322;28;20035;-68
2021/08/09 03:47:45;;;;;;;6.50;3.90;;;15.60;81.90;;;14.13;82.79;96321.00;4918035;29;20050;-64
2021/08/09 03:50:11;;;;;;;11.32;9.00;;;15.60;81.70;;;14.15;81.86;96321.59;4943604;28;20126;-66
2021/08/09 03:52:48;;;;;;;8.52;7.05;;;15.60;81.70;;;14.17;82.57;96330.13;4946732;28;20027;-66
2021/08/09 03:55:14;;;;;;;11.60;8.65;;;15.60;81.60;;;14.17;81.81;96324.84;4934310;29;20074;-62
2021/08/09 03:57:40;;;;;;;8.05;4.10;;;15.60;81.70;;;14.18;82.18;96318.53;4934557;28;20398;-62
2021/08/09 04:00:07;;;;;;;3.88;2.53;;;15.70;81.70;;;14.21;82.42;96320.75;4943255;28;20172;-64
2021/08/09 04:02:32;;;;;;;5.93;2.70;;;15.70;81.70;;;14.21;82.75;96318.13;4962721;28;20074;-62
2021/08/09 04:04:58;;;;;;;9.85;5.28;;;15.70;81.80;;;14.22;81.43;96322.38;4937763;28;20043;-63
2021/08/09 04:07:27;;;;;;;38.65;31.88;;;15.70;81.50;;;14.23;82.24;96324.00;4953751;28;20062;-62
2021/08/09 04:09:54;;;;;;;44.08;36.53;;;15.70;81.50;;;14.25;82.80;96321.97;4951927;28;20034;-62
2021/08/09 04:12:20;;;;;;;15.40;13.80;;;15.70;81.50;;;14.26;81.15;96320.97;4943517;28;20411;-62
2021/08/09 04:14:46;;;;;;;6.57;3.40;;;15.80;81.40;;;14.25;82.30;96317.50;4965421;28;20062;-62
2021/08/09 04:17:12;;;;;;;4.15;2.45;;;15.70;81.50;;;14.24;81.94;96315.06;4942670;28;20877;-62
2021/08/09 04:19:38;;;;;;;3.10;1.80;;;15.70;81.50;;;14.22;81.45;96311.81;4954171;28;20070;-61
2021/08/09 04:22:03;;;;;;;2.83;1.92;;;15.60;81.40;;;14.21;82.92;96310.19;4923254;29;20028;-62
2021/08/09 04:24:29;;;;;;;3.08;1.40;;;15.60;81.50;;;14.20;82.96;96313.84;4931341;28;20127;-61
2021/08/09 04:26:55;;;;;;;2.90;1.65;;;15.70;81.40;;;14.18;81.35;96322.00;4946137;28;20028;-61
2021/08/09 04:29:21;;;;;;;2.33;1.67;;;15.70;81.30;;;14.18;83.00;96323.81;4981289;28;20031;-62
2021/08/09 04:31:46;;;;;;;4.32;1.50;;;15.70;81.20;;;14.17;82.54;96330.13;4965395;28;20099;-63
2021/08/09 04:34:12;;;;;;;4.15;1.55;;;15.60;81.30;;;14.14;81.45;96319.97;4949565;28;20031;-62
2021/08/09 04:36:38;;;;;;;4.35;3.08;;;15.60;81.40;;;14.14;81.55;96328.72;4935408;28;20035;-62
2021/08/09 04:39:04;;;;;;;5.95;2.90;;;15.60;81.40;;;14.13;81.43;96323.63;4952565;28;20074;-62
2021/08/09 04:41:29;;;;;;;3.40;1.98;;;15.60;81.30;;;14.13;81.79;96318.34;4934007;28;20511;-62
2021/08/09 04:43:55;;;;;;;6.03;2.25;;;15.60;81.30;;;14.13;82.08;96319.16;4953153;28;20159;-62
2021/08/09 04:46:21;;;;;;;4.95;2.60;;;15.60;81.40;;;14.13;82.62;96318.34;4966950;28;20129;-63
2021/08/09 04:48:46;;;;;;;4.22;2.35;;;15.60;81.30;;;14.14;81.70;96315.50;4971806;28;20109;-63
2021/08/09 04:51:13;;;;;;;7.18;5.80;;;15.60;81.30;;;14.17;82.25;96325.66;4944930;28;20098;-63
2021/08/09 04:53:39;;;;;;;7.68;3.47;;;15.70;81.20;;;14.20;82.19;96319.13;4952297;28;20054;-64
2021/08/09 04:56:05;;;;;;;6.30;2.70;;;15.80;81.10;;;14.25;82.08;96316.69;4926901;29;20070;-65
2021/08/09 04:58:30;;;;;;;3.30;1.90;;;15.90;81.00;;;14.30;82.60;96322.19;4966791;28;20031;-64
2021/08/09 05:00:56;;;;;;;2.65;1.70;;;16.00;81.10;;;14.36;82.41;96316.88;4958241;28;20023;-64
2021/08/09 05:03:22;;;;;;;4.40;1.88;;;16.10;81.00;;;14.42;81.49;96323.16;4916426;28;20039;-66
2021/08/09 05:05:48;;;;;;;3.28;2.00;;;16.10;80.00;;;14.46;81.46;96320.94;4963152;28;20043;-64
2021/08/09 05:08:14;;;;;;;4.32;1.83;;;16.10;80.40;;;14.51;82.03;96326.47;4947758;28;20419;-64
2021/08/09 05:10:39;;;;;;;2.60;1.48;;;16.20;80.50;;;14.54;82.06;96332.16;4966733;28;20034;-64
2021/08/09 05:13:05;;;;;;;3.90;2.00;;;16.20;79.80;;;14.58;81.45;96322.75;4947391;28;20538;-64
2021/08/09 05:15:33;;;;;;;2.20;1.38;;;16.20;79.90;;;14.62;81.50;96323.97;4946198;28;20027;-66
2021/08/09 05:17:59;;;;;;;11.13;6.80;;;16.30;79.70;;;14.67;81.41;96325.97;4975038;28;20138;-64
2021/08/09 05:20:24;;;;;;;8.43;5.90;;;16.40;79.50;;;14.72;81.14;96342.06;4939707;28;20038;-62
2021/08/09 05:22:50;;;;;;;8.68;5.63;;;16.40;79.20;;;14.76;81.00;96331.88;4935241;28;20485;-68
2021/08/09 05:25:16;;;;;;;5.43;3.10;;;16.40;79.40;;;14.82;80.84;96334.50;4970098;28;20085;-61
2021/08/09 05:27:42;;;;;;;3.20;2.15;;;16.50;79.60;;;14.88;81.63;96340.78;4922384;28;20118;-61
2021/08/09 05:30:09;;;;;;;3.78;1.75;;;16.50;79.40;;;14.94;81.04;96347.91;4957960;28;20380;-62
2021/08/09 05:32:35;;;;;;;3.53;2.15;;;16.70;79.50;;;15.00;81.05;96336.47;4924211;29;20054;-62
2021/08/09 05:35:02;;;;;;;2.58;1.70;;;16.70;79.00;;;15.07;80.59;96337.25;4920480;29;20035;-62
2021/08/09 05:37:28;;;;;;;18.52;13.40;;;16.80;78.60;;;15.14;80.98;96343.31;4914367;28;20031;-62
2021/08/09 05:39:56;;;;;;;4.47;2.92;;;16.90;78.40;;;15.21;80.70;96344.09;4939157;28;20152;-61
2021/08/09 05:42:22;;;;;;;22.95;19.67;;;16.90;77.70;;;15.26;80.68;96341.63;4954745;28;20038;-62
2021/08/09 05:44:47;;;;;;;4.68;2.20;;;17.00;78.00;;;15.33;79.80;96352.19;4952688;28;20023;-66
2021/08/09 05:47:13;;;;;;;5.78;1.60;;;17.00;77.30;;;15.39;79.99;96345.22;4931956;28;20592;-62
2021/08/09 05:49:39;;;;;;;4.30;1.52;;;17.10;77.30;;;15.44;79.78;96338.28;4922684;28;20031;-62
2021/08/09 05:52:05;;;;;;;2.70;1.70;;;17.20;77.60;;;15.49;79.78;96334.97;4948577;28;20103;-62
2021/08/09 05:54:30;;;;;;;4.18;1.50;;;17.30;76.60;;;15.54;78.79;96337.78;4937000;28;20043;-63
2021/08/09 05:56:56;;;;;;;3.55;1.27;;;17.30;75.90;;;15.59;78.51;96340.63;4945221;28;20067;-63
2021/08/09 05:59:22;;;;;;;3.45;1.20;;;17.40;75.80;;;15.70;79.23;96347.91;4981869;28;20132;-63
2021/08/09 06:01:48;;;;;;;2.58;1.52;;;17.70;76.00;;;15.82;78.53;96351.50;4955545;28;20027;-63
2021/08/09 06:04:13;;;;;;;5.30;2.92;;;17.90;75.30;;;15.92;78.51;96343.88;4964347;28;20444;-63
2021/08/09 06:06:41;;;;;;;7.28;2.03;;;17.90;74.40;;;16.03;78.92;96357.44;4943738;28;20526;-64
2021/08/09 06:09:07;;;;;;;16.50;11.00;;;18.00;74.90;;;16.13;78.44;96357.78;4965924;28;20110;-64
2021/08/09 06:11:32;;;;;;;6.95;3.33;;;18.10;74.50;;;16.22;78.22;96345.88;4941823;28;20040;-63
2021/08/09 06:13:58;;;;;;;3.42;1.73;;;18.20;73.80;;;16.33;77.86;96342.50;4958346;28;20038;-63
2021/08/09 06:16:25;;;;;;;3.15;1.40;;;18.40;73.50;;;16.46;77.67;96331.75;4961713;28;20086;-64
2021/08/09 06:18:51;;;;;;;3.03;1.70;;;18.60;73.00;;;16.61;77.37;96343.84;4996921;28;20063;-64
2021/08/09 06:21:16;;;;;;;4.80;1.45;;;18.80;72.10;;;16.71;76.55;96336.22;4967669;28;20034;-64
2021/08/09 06:23:43;;;;;;;2.08;1.30;;;18.80;71.80;;;16.83;77.03;96331.78;4954223;28;20053;-63
2021/08/09 06:26:08;;;;;;;2.35;1.33;;;19.00;71.90;;;16.95;77.03;96335.31;4938089;29;20528;-64
2021/08/09 06:28:35;;;;;;;3.83;1.20;;;19.10;71.70;;;17.03;77.04;96326.25;4977694;28;20058;-66
2021/08/09 06:31:01;;;;;;;4.22;1.38;;;19.10;72.30;;;17.10;75.92;96346.38;4941178;28;20062;-64
2021/08/09 06:33:27;;;;;;;2.78;1.30;;;19.00;71.80;;;17.14;75.83;96339.56;4934626;28;20589;-65
2021/08/09 06:35:53;;;;;;;6.22;3.33;;;19.10;71.40;;;17.21;76.02;96344.81;4998600;28;20119;-64
2021/08/09 06:38:18;;;;;;;7.32;3.65;;;19.30;70.90;;;17.27;75.57;96351.09;4981537;28;20822;-65
2021/08/09 06:40:45;;;;;;;3.55;2.20;;;19.40;70.80;;;17.35;75.89;96356.88;4957655;28;20455;-64
2021/08/09 06:43:10;;;;;;;3.40;1.40;;;19.50;70.60;;;17.45;74.80;96361.69;4967121;28;20086;-64
2021/08/09 06:45:43;;;;;;;2.13;1.25;;;19.80;69.20;;;17.57;74.96;96353.72;4965111;28;20039;-65
2021/08/09 06:48:10;;;;;;;3.17;1.42;;;19.70;69.90;;;17.65;75.30;96345.41;4920564;29;20036;-65
2021/08/09 06:50:40;;;;;;;5.72;1.30;;;19.80;69.50;;;17.77;74.75;96340.97;4961619;28;20044;-63
2021/08/09 06:53:05;;;;;;;7.28;4.82;;;20.10;68.90;;;17.91;74.46;96338.94;4931998;29;20028;-63
2021/08/09 06:55:31;;;;;;;5.70;2.10;;;20.40;66.60;;;18.07;73.71;96338.25;4949871;28;20545;-64
2021/08/09 06:57:57;;;;;;;2.90;1.10;;;20.70;65.70;;;18.20;72.58;96343.38;4964841;28;20061;-65
2021/08/09 07:00:23;;;;;;;2.03;0.90;;;20.90;65.70;;;18.32;72.54;96320.19;4935338;28;20035;-63
2021/08/09 07:02:48;;;;;;;3.15;1.25;;;20.80;64.10;;;18.44;71.96;96317.53;4938064;28;20054;-63
2021/08/09 07:05:14;;;;;;;2.33;1.27;;;21.10;64.20;;;18.57;72.55;96327.16;4949648;28;20467;-64
2021/08/09 07:07:42;;;;;;;3.75;1.40;;;21.40;63.30;;;18.70;71.52;96326.91;4951594;28;20499;-64
2021/08/09 07:10:09;;;;;;;4.72;1.50;;;21.70;62.90;;;18.86;71.95;96326.19;4958623;28;20090;-64
2021/08/09 07:12:34;;;;;;;2.72;1.10;;;22.00;62.50;;;19.05;71.64;96326.03;4969649;28;20043;-64
2021/08/09 07:15:00;;;;;;;2.42;1.00;;;22.20;61.20;;;19.23;70.25;96336.50;4952402;28;20058;-65
2021/08/09 07:17:26;;;;;;;2.63;1.20;;;22.40;58.90;;;19.35;69.61;96337.28;4971920;28;20032;-65
2021/08/09 07:19:52;;;;;;;3.03;1.38;;;22.50;57.90;;;19.49;69.87;96337.81;4950298;28;20527;-64
2021/08/09 07:22:18;;;;;;;2.75;0.95;;;22.70;57.40;;;19.65;67.81;96336.25;4933971;28;20039;-63
2021/08/09 07:24:43;;;;;;;1.92;0.95;;;23.00;56.50;;;19.80;67.74;96336.53;4961095;28;20407;-63
2021/08/09 07:27:09;;;;;;;1.85;0.80;;;22.90;55.60;;;19.93;66.37;96340.75;4945446;28;20066;-64
2021/08/09 07:29:35;;;;;;;2.25;0.90;;;23.00;53.70;;;20.04;65.64;96338.00;4967450;28;20451;-64
2021/08/09 07:32:01;;;;;;;2.58;1.02;;;22.90;53.40;;;20.14;64.91;96332.00;4966323;28;20058;-64
2021/08/09 07:34:26;;;;;;;2.80;1.00;;;23.10;53.30;;;20.28;63.65;96343.16;4937964;28;20118;-65
2021/08/09 07:36:52;;;;;;;1.90;0.77;;;23.40;51.60;;;20.44;62.84;96332.50;4970306;28;20038;-64
2021/08/09 07:39:18;;;;;;;2.80;0.88;;;23.50;51.70;;;20.56;62.77;96335.06;4936704;28;20046;-63
2021/08/09 07:41:44;;;;;;;1.50;0.73;;;23.40;51.30;;;20.67;61.46;96328.81;4950451;28;20254;-62
2021/08/09 07:44:10;;;;;;;1.85;1.00;;;23.40;48.20;;;20.75;59.84;96339.06;4949934;28;20028;-64
2021/08/09 07:46:36;;;;;;;1.50;0.70;;;23.30;49.10;;;20.83;59.56;96343.19;4967983;28;20043;-63
2021/08/09 07:49:01;;;;;;;3.88;1.20;;;23.40;49.10;;;20.97;60.41;96348.97;4960184;28;20075;-64
2021/08/09 07:51:27;;;;;;;3.30;1.50;;;23.60;50.60;;;21.13;60.27;96340.09;4948671;28;20125;-63
2021/08/09 07:53:53;;;;;;;3.63;1.90;;;23.90;51.50;;;21.32;59.74;96349.44;4965392;28;20652;-62
2021/08/09 07:56:19;;;;;;;3.17;1.00;;;24.10;49.40;;;21.55;59.44;96347.56;4965794;28;20062;-62
2021/08/09 07:58:44;;;;;;;3.35;1.13;;;24.60;49.80;;;21.77;59.35;96344.81;4976553;28;20064;-62
2021/08/09 08:01:10;;;;;;;4.20;1.08;;;24.60;49.20;;;21.86;58.23;96332.56;4947975;28;20082;-63
2021/08/09 08:03:36;;;;;;;3.03;1.15;;;24.40;48.30;;;21.91;57.52;96340.66;4950486;28;20126;-63
2021/08/09 08:06:02;;;;;;;4.80;1.17;;;24.20;47.50;;;21.93;57.79;96333.16;4953180;28;20111;-63
2021/08/09 08:08:27;;;;;;;1.70;0.82;;;24.50;49.30;;;22.02;56.90;96332.47;4934602;28;20071;-63
2021/08/09 08:10:53;;;;;;;4.30;1.00;;;24.70;47.80;;;22.18;55.91;96336.09;4952284;28;20035;-63
2021/08/09 08:13:19;;;;;;;3.35;1.02;;;25.10;45.90;;;22.25;56.34;96338.56;4955107;28;20110;-63
2021/08/09 08:15:44;;;;;;;2.80;0.95;;;24.80;47.50;;;22.28;56.63;96341.53;4922366;28;20113;-62
2021/08/09 08:18:10;;;;;;;5.20;1.10;;;24.80;48.90;;;22.36;56.33;96340.22;4947656;28;20110;-63
2021/08/09 08:20:36;;;;;;;2.63;0.90;;;25.00;47.70;;;22.45;55.83;96336.03;4924981;28;20062;-63
2021/08/09 08:23:04;;;;;;;2.38;1.10;;;25.10;47.50;;;22.56;55.97;96337.69;4969820;28;20043;-63
2021/08/09 08:25:30;;;;;;;3.22;0.90;;;25.40;47.70;;;22.73;55.97;96331.34;4956294;28;20041;-64
2021/08/09 08:27:56;;;;;;;4.50;1.23;;;25.60;45.30;;;22.86;55.00;96326.38;4965768;28;20141;-63
2021/08/09 08:30:21;;;;;;;2.33;0.80;;;25.80;45.10;;;23.06;55.02;96325.63;4939691;28;20031;-62
2021/08/09 08:32:47;;;;;;;3.15;0.90;;;26.10;45.70;;;23.15;54.18;96336.69;4927085;29;20066;-64
2021/08/09 08:35:13;;;;;;;2.72;1.48;;;25.90;44.20;;;23.27;54.47;96331.06;4955778;28;20027;-63
2021/08/09 08:37:39;;;;;;;6.80;1.58;;;26.30;46.20;;;23.44;54.50;96329.00;4969212;28;20130;-63
2021/08/09 08:40:05;;;;;;;10.02;2.60;;;26.60;43.90;;;23.59;54.41;96339.81;4936025;29;20153;-64
2021/08/09 08:42:31;;;;;;;9.75;3.53;;;26.70;44.90;;;23.74;53.42;96331.75;4946234;28;20046;-65
2021/08/09 08:44:57;;;;;;;3.67;1.58;;;26.90;42.60;;;23.92;53.46;96326.94;4947916;28;20720;-65
2021/08/09 08:47:24;;;;;;;3.92;1.33;;;27.20;44.10;;;24.11;53.56;96328.84;4973436;28;20038;-65
2021/08/09 08:49:50;;;;;;;2.92;1.10;;;27.50;44.80;;;24.32;53.54;96332.34;4937043;29;20074;-65
2021/08/09 08:52:16;;;;;;;1.83;0.90;;;27.70;42.80;;;24.50;52.94;96330.19;4978776;28;20701;-64
2021/08/09 08:54:41;;;;;;;2.75;0.80;;;27.80;42.90;;;24.54;52.54;96329.38;4950070;28;20034;-64
2021/08/09 08:57:20;;;;;;;4.45;1.50;;;27.60;43.10;;;24.60;50.33;96330.97;4953418;28;20494;-64
2021/08/09 08:59:46;;;;;;;5.78;1.30;;;27.60;43.30;;;24.66;52.99;96339.81;4955790;28;20043;-65
2021/08/09 09:02:35;;;;;;;2.30;0.93;;;27.80;43.50;;;24.84;50.13;96338.44;4971518;28;20039;-63
2021/08/09 09:05:14;;;;;;;5.07;0.80;;;28.10;42.80;;;24.96;49.58;96337.06;4968234;28;20035;-64
2021/08/09 09:07:42;;;;;;;2.80;1.13;;;28.30;41.40;;;25.14;51.82;96341.06;4921775;28;20042;-64
2021/08/09 09:10:26;;;;;;;4.82;3.08;;;28.50;42.10;;;25.33;48.29;96346.63;4952677;28;20039;-66
2021/08/09 09:13:15;;;;;;;2.90;1.00;;;28.60;40.50;;;25.50;48.23;96339.00;4918627;29;20036;-65
2021/08/09 09:16:07;;;;;;;2.33;0.80;;;28.70;40.80;;;25.68;48.81;96331.41;4965219;28;22215;-63
2021/08/09 09:18:59;;;;;;;1.50;0.85;;;28.80;41.50;;;25.80;47.30;96334.53;4949644;29;20046;-66
2021/08/09 09:21:43;;;;;;;3.20;1.00;;;28.90;39.70;;;25.94;46.87;96335.53;4964852;28;20031;-64
2021/08/09 09:24:19;;;;;;;5.13;1.10;;;29.10;39.40;;;26.16;47.86;96337.78;4947829;28;20042;-66
2021/08/09 09:26:52;;;;;;;4.47;1.17;;;29.60;40.40;;;26.47;47.83;96331.06;4944373;28;20035;-65
2021/08/09 09:29:18;;;;;;;1.90;0.90;;;30.10;39.50;;;26.70;49.06;96334.06;4955150;28;20034;-64
2021/08/09 09:31:47;;;;;;;1.90;0.88;;;30.20;37.80;;;26.73;47.69;96337.03;4955281;28;20504;-63
2021/08/09 09:34:17;;;;;;;2.63;0.93;;;29.90;39.20;;;26.85;46.69;96344.72;4971406;28;20043;-63
2021/08/09 09:36:58;;;;;;;3.15;1.10;;;30.00;39.10;;;26.96;44.37;96345.44;4953342;28;20400;-63
2021/08/09 09:39:38;;;;;;;8.23;2.33;;;30.10;36.70;;;27.06;44.74;96332.63;4948944;28;20034;-63
2021/08/09 09:42:11;;;;;;;5.75;1.23;;;30.20;37.70;;;27.17;45.13;96332.53;4966998;28;20521;-62
2021/08/09 09:44:39;;;;;;;4.43;1.50;;;30.60;37.80;;;27.38;45.89;96334.66;4977618;28;20122;-65
2021/08/09 09:47:26;;;;;;;3.53;1.00;;;30.90;37.50;;;27.72;44.90;96341.81;4958019;28;20067;-64
2021/08/09 09:49:56;;;;;;;2.72;0.90;;;31.40;38.00;;;27.85;45.47;96346.50;4969514;28;20035;-63
2021/08/09 09:52:33;;;;;;;1.90;0.80;;;31.10;36.60;;;27.83;44.16;96348.66;4954312;28;20182;-64
2021/08/09 09:55:02;;;;;;;2.75;0.95;;;31.10;36.50;;;27.77;44.95;96341.72;4980236;28;20116;-64
2021/08/09 09:57:28;;;;;;;2.15;0.98;;;30.60;36.80;;;27.74;45.12;96334.19;4923498;28;20094;-64
2021/08/09 09:59:56;;;;;;;2.33;0.80;;;30.50;37.00;;;27.72;45.00;96328.28;4971828;28;20446;-65
2021/08/09 10:02:22;;;;;;;2.42;0.80;;;30.70;37.60;;;27.83;45.15;96326.22;4955335;28;20039;-66
2021/08/09 10:04:49;;;;;;;2.58;0.90;;;31.10;37.00;;;27.93;45.39;96332.28;4928789;29;20039;-63
2021/08/09 10:07:15;;;;;;;2.60;0.82;;;31.10;36.60;;;27.89;44.45;96331.28;4959586;28;20043;-65
2021/08/09 10:09:40;;;;;;;1.83;0.90;;;30.60;36.20;;;27.90;44.65;96330.19;4966211;28;20454;-65
2021/08/09 10:12:07;;;;;;;2.45;0.98;;;31.00;36.80;;;28.05;44.63;96332.63;4928580;28;20487;-66
2021/08/09 10:14:33;;;;;;;3.33;0.95;;;31.50;36.50;;;28.17;45.15;96328.69;4931624;29;20035;-66
2021/08/09 10:16:59;;;;;;;5.38;1.02;;;31.40;36.50;;;28.31;44.61;96321.47;4952040;28;20367;-64
2021/08/09 10:19:24;;;;;;;2.55;0.90;;;31.80;37.10;;;28.57;44.94;96319.91;4965426;28;20053;-65
2021/08/09 10:21:50;;;;;;;3.70;0.80;;;32.50;36.30;;;28.75;44.92;96322.84;4942324;28;20035;-64